Time;durP1;ratioP1;P1;durP2;ratioP2;P2;SDS_P1;SDS_P2;PMS_P1;PMS_P2;Temp;Humidity;BMP_temperature;BMP_pressure;BME280_temperature;BME280_humidity;BME280_pressure;Samples;Min_cycle;Max_cycle;Signal;HPM_P1;HPM_P2
2022/09/18 00:01:07;;;;;;;6.72;2.00;;;;;;;10.92;100.00;101479.38;5010651;28;20028;-74
2022/09/18 00:03:32;;;;;;;7.95;2.25;;;;;;;10.89;100.00;101482.50;5021369;28;20021;-74
2022/09/18 00:06:03;;;;;;;9.27;2.10;;;;;;;10.88;100.00;101471.91;5015769;28;20036;-74
2022/09/18 00:08:28;;;;;;;6.20;1.90;;;;;;;10.90;100.00;101467.94;5030130;28;20029;-74
2022/09/18 00:10:54;;;;;;;5.25;2.13;;;;;;;10.89;100.00;101477.09;5013170;28;20109;-74
2022/09/18 00:13:19;;;;;;;6.57;2.08;;;;;;;10.87;100.00;101475.63;5030929;28;20025;-74
2022/09/18 00:15:53;;;;;;;4.72;2.28;;;;;;;10.86;100.00;101472.09;5029895;28;20104;-74
2022/09/18 00:18:18;;;;;;;5.15;2.40;;;;;;;10.89;100.00;101465.44;5031743;28;20527;-74
2022/09/18 00:20:44;;;;;;;6.45;2.63;;;;;;;10.86;100.00;101474.00;5033131;28;20026;-74
2022/09/18 00:23:09;;;;;;;6.15;2.53;;;;;;;10.85;100.00;101481.25;5031114;28;20052;-74
2022/09/18 00:25:34;;;;;;;6.72;2.17;;;;;;;10.88;100.00;101469.19;5009959;28;20080;-74
2022/09/18 00:28:00;;;;;;;8.05;2.58;;;;;;;10.85;100.00;101466.91;5025530;28;20028;-74
2022/09/18 00:30:25;;;;;;;6.47;2.35;;;;;;;10.87;100.00;101459.41;5031160;28;20028;-74
2022/09/18 00:32:50;;;;;;;8.43;2.33;;;;;;;10.85;100.00;101465.03;5029441;28;20048;-74
2022/09/18 00:35:16;;;;;;;8.23;2.20;;;;;;;10.84;100.00;101463.38;5029510;28;20072;-74
2022/09/18 00:37:41;;;;;;;3.45;1.90;;;;;;;10.86;100.00;101460.47;5032730;28;20108;-74
2022/09/18 00:40:06;;;;;;;7.90;2.40;;;;;;;10.86;100.00;101468.59;5013368;28;20061;-74
2022/09/18 00:42:32;;;;;;;6.03;2.33;;;;;;;10.86;100.00;101463.16;5032727;28;20022;-74
2022/09/18 00:44:57;;;;;;;8.82;2.47;;;;;;;10.86;100.00;101474.81;5022169;28;20033;-74
2022/09/18 00:47:31;;;;;;;7.68;2.20;;;;;;;10.86;100.00;101474.00;5032565;28;20021;-74
2022/09/18 00:50:06;;;;;;;5.88;2.45;;;;;;;10.86;100.00;101471.28;5030502;28;20025;-74
2022/09/18 00:52:53;;;;;;;9.30;2.70;;;;;;;10.86;100.00;101460.47;5030150;28;20082;-75
2022/09/18 00:55:23;;;;;;;8.00;2.40;;;;;;;10.85;100.00;101464.19;5029793;28;20033;-74
2022/09/18 00:57:53;;;;;;;8.35;2.38;;;;;;;10.85;100.00;101458.78;5030244;28;20453;-74
2022/09/18 01:00:19;;;;;;;6.07;2.42;;;;;;;10.86;100.00;101455.03;5023845;28;20068;-74
2022/09/18 01:02:45;;;;;;;8.57;2.17;;;;;;;10.87;100.00;101460.25;5021825;28;20499;-74
2022/09/18 01:05:13;;;;;;;8.23;2.60;;;;;;;10.86;100.00;101469.41;5030693;28;20100;-74
2022/09/18 01:07:57;;;;;;;6.50;2.30;;;;;;;10.90;100.00;101472.50;5032262;28;20021;-74
2022/09/18 01:10:27;;;;;;;7.07;2.50;;;;;;;10.87;100.00;101457.53;5025712;28;20104;-74
2022/09/18 01:13:05;;;;;;;7.15;2.55;;;;;;;10.89;100.00;101468.97;5014403;28;20030;-74
2022/09/18 01:15:40;;;;;;;6.50;2.40;;;;;;;10.90;100.00;101475.22;5028345;28;20383;-74
2022/09/18 01:18:34;;;;;;;7.50;2.88;;;;;;;10.91;100.00;101482.31;5003218;28;20038;-74
2022/09/18 01:21:02;;;;;;;7.60;2.58;;;;;;;10.93;100.00;101472.09;5031151;28;20095;-74
2022/09/18 01:24:05;;;;;;;5.82;2.13;;;;;;;10.97;100.00;101473.31;5031334;28;20083;-74
2022/09/18 01:26:43;;;;;;;5.50;2.10;;;;;;;10.94;100.00;101473.75;5031766;28;20029;-74
2022/09/18 01:29:35;;;;;;;5.35;2.20;;;;;;;10.99;100.00;101487.47;5020465;28;20121;-74
2022/09/18 01:32:07;;;;;;;5.32;2.47;;;;;;;10.96;100.00;101467.09;5030550;28;20057;-74
2022/09/18 01:34:41;;;;;;;7.45;2.50;;;;;;;10.98;100.00;101472.28;5009880;28;20030;-74
2022/09/18 01:37:23;;;;;;;10.30;2.80;;;;;;;10.95;100.00;101462.72;5033819;28;20469;-74
2022/09/18 01:40:03;;;;;;;8.30;2.47;;;;;;;10.97;100.00;101463.31;5034020;28;20022;-74
2022/09/18 01:42:30;;;;;;;9.00;2.55;;;;;;;10.98;100.00;101456.88;5033680;28;20029;-74
2022/09/18 01:45:00;;;;;;;9.05;2.72;;;;;;;10.97;100.00;101462.50;5034693;28;20372;-74
2022/09/18 01:47:31;;;;;;;9.90;3.10;;;;;;;10.97;100.00;101457.06;5034373;28;20030;-74
2022/09/18 01:49:59;;;;;;;8.82;2.55;;;;;;;10.96;100.00;101461.69;5034337;28;20028;-74
2022/09/18 01:52:30;;;;;;;8.52;2.83;;;;;;;10.95;100.00;101454.59;5008821;28;20045;-74
2022/09/18 01:54:57;;;;;;;6.68;2.75;;;;;;;10.93;100.00;101445.00;5034537;28;20033;-74
2022/09/18 01:57:30;;;;;;;7.13;2.70;;;;;;;10.92;100.00;101456.91;5034787;28;20033;-74
2022/09/18 02:00:09;;;;;;;9.90;2.88;;;;;;;10.92;100.00;101454.19;5032984;28;20063;-74
2022/09/18 02:02:47;;;;;;;7.68;2.90;;;;;;;10.88;100.00;101439.41;5027894;28;20030;-74
2022/09/18 02:05:23;;;;;;;8.73;2.67;;;;;;;10.91;100.00;101444.41;5033220;28;20048;-74
2022/09/18 02:08:00;;;;;;;6.05;2.78;;;;;;;10.90;100.00;101446.28;5035364;28;20388;-74
2022/09/18 02:10:29;;;;;;;7.55;2.80;;;;;;;10.86;100.00;101450.44;5034513;28;20033;-74
2022/09/18 02:12:56;;;;;;;7.30;2.80;;;;;;;10.87;100.00;101449.41;5034340;28;20479;-74
2022/09/18 02:15:24;;;;;;;6.50;2.83;;;;;;;10.86;100.00;101445.03;5031637;28;20109;-74
2022/09/18 02:17:59;;;;;;;6.40;2.90;;;;;;;10.87;100.00;101437.72;5033694;28;20028;-74
2022/09/18 02:20:28;;;;;;;6.78;2.60;;;;;;;10.86;100.00;101439.63;5033911;28;20021;-74
2022/09/18 02:22:58;;;;;;;6.75;2.50;;;;;;;10.84;100.00;101439.00;5031854;28;20033;-74
2022/09/18 02:25:29;;;;;;;4.65;2.53;;;;;;;10.84;100.00;101432.75;5016629;28;20372;-74
2022/09/18 02:27:55;;;;;;;7.20;2.58;;;;;;;10.86;100.00;101433.38;5032240;28;20105;-74
2022/09/18 02:30:21;;;;;;;7.70;2.60;;;;;;;10.85;100.00;101429.00;5032975;28;20416;-74
2022/09/18 02:32:46;;;;;;;6.10;2.60;;;;;;;10.83;100.00;101418.38;5031354;28;20144;-74
2022/09/18 02:35:13;;;;;;;7.55;2.47;;;;;;;10.86;100.00;101427.97;5023111;28;20469;-74
2022/09/18 02:37:42;;;;;;;13.23;2.70;;;;;;;10.84;100.00;101421.91;5015205;28;20030;-74
2022/09/18 02:40:32;;;;;;;9.23;2.42;;;;;;;10.91;100.00;101422.72;5027941;28;20029;-74
2022/09/18 02:43:29;;;;;;;7.38;2.30;;;;;;;10.88;100.00;101428.56;5028969;28;20022;-74
2022/09/18 02:46:22;;;;;;;6.13;2.00;;;;;;;10.87;100.00;101413.38;4954106;28;20052;-74
2022/09/18 02:49:17;;;;;;;8.98;2.40;;;;;;;10.89;100.00;101431.06;5017988;28;20041;-74
2022/09/18 02:52:05;;;;;;;7.05;2.33;;;;;;;10.95;100.00;101427.50;5031368;28;20437;-74
2022/09/18 02:54:50;;;;;;;6.78;2.30;;;;;;;10.93;100.00;101423.34;5032818;28;20094;-74
2022/09/18 02:57:23;;;;;;;6.97;2.50;;;;;;;10.92;100.00;101422.50;5033346;28;20021;-74
2022/09/18 02:59:52;;;;;;;8.10;2.25;;;;;;;10.91;100.00;101414.59;5031341;28;20025;-74
2022/09/18 03:02:20;;;;;;;8.88;2.72;;;;;;;10.93;100.00;101412.50;5030653;28;20036;-74
2022/09/18 03:04:45;;;;;;;9.05;2.35;;;;;;;10.90;100.00;101415.66;5031039;28;20048;-74
2022/09/18 03:07:13;;;;;;;9.23;2.85;;;;;;;10.91;100.00;101420.03;5031862;28;20017;-74
2022/09/18 03:09:38;;;;;;;10.48;2.45;;;;;;;10.95;100.00;101415.84;5032751;28;20039;-74
2022/09/18 03:12:04;;;;;;;8.82;2.70;;;;;;;10.93;100.00;101416.06;5015727;28;20113;-74
2022/09/18 03:14:29;;;;;;;9.82;2.72;;;;;;;10.94;100.00;101400.63;5030398;28;20112;-74
2022/09/18 03:16:54;;;;;;;8.77;2.30;;;;;;;10.96;100.00;101412.06;5033841;28;20032;-74
2022/09/18 03:19:20;;;;;;;7.10;1.95;;;;;;;10.95;100.00;101405.84;5032769;28;20380;-74
2022/09/18 03:21:45;;;;;;;11.18;2.95;;;;;;;10.98;100.00;101410.00;5031315;28;20033;-72
2022/09/18 03:24:11;;;;;;;8.10;2.08;;;;;;;10.98;100.00;101408.13;5032276;28;20021;-73
2022/09/18 03:26:37;;;;;;;6.60;1.98;;;;;;;11.00;100.00;101407.91;5032162;28;20487;-73
2022/09/18 03:29:06;;;;;;;10.70;1.98;;;;;;;11.02;100.00;101413.97;5021444;28;20030;-73
2022/09/18 03:31:31;;;;;;;8.07;1.80;;;;;;;11.03;100.00;101414.78;5013229;28;20030;-73
2022/09/18 03:33:57;;;;;;;9.95;2.55;;;;;;;11.05;100.00;101405.41;5032319;28;20038;-74
2022/09/18 03:36:22;;;;;;;8.48;1.95;;;;;;;11.01;100.00;101404.16;5016678;28;20033;-73
2022/09/18 03:38:47;;;;;;;11.98;2.28;;;;;;;11.04;100.00;101400.19;5033914;28;20021;-73
2022/09/18 03:41:12;;;;;;;6.35;2.00;;;;;;;11.01;100.00;101404.16;5029512;28;20021;-74
2022/09/18 03:43:38;;;;;;;6.07;1.85;;;;;;;11.00;100.00;101402.50;5014801;28;20033;-74
2022/09/18 03:46:03;;;;;;;6.47;1.63;;;;;;;11.01;100.00;101403.34;5023241;28;20033;-73
2022/09/18 03:48:29;;;;;;;6.00;1.98;;;;;;;10.96;100.00;101391.28;5031059;28;20461;-74
2022/09/18 03:50:54;;;;;;;5.38;1.40;;;;;;;10.95;100.00;101399.59;5033950;28;20113;-73
2022/09/18 03:53:19;;;;;;;7.32;1.38;;;;;;;10.95;100.00;101388.78;5029281;28;20030;-74
2022/09/18 03:55:45;;;;;;;6.85;1.48;;;;;;;10.94;100.00;101387.91;5032336;28;20037;-74
2022/09/18 03:58:11;;;;;;;8.10;1.70;;;;;;;10.94;100.00;101384.41;5030611;28;20120;-74
2022/09/18 04:00:36;;;;;;;6.82;1.65;;;;;;;10.90;100.00;101389.41;5012537;28;20523;-74
2022/09/18 04:03:02;;;;;;;8.15;1.67;;;;;;;10.90;100.00;101385.84;5012820;28;20103;-74
2022/09/18 04:05:27;;;;;;;5.90;1.45;;;;;;;10.90;100.00;101384.00;5024488;28;20044;-74
2022/09/18 04:07:52;;;;;;;6.85;1.30;;;;;;;10.86;100.00;101381.94;5028330;28;20033;-74
2022/09/18 04:10:19;;;;;;;9.88;2.30;;;;;;;10.86;100.00;101380.06;5013846;28;20048;-74
2022/09/18 04:12:46;;;;;;;4.72;1.20;;;;;;;10.86;100.00;101377.34;5028502;28;20437;-74
2022/09/18 04:15:12;;;;;;;9.43;1.60;;;;;;;10.86;100.00;101379.22;5029961;28;20040;-74
2022/09/18 04:17:37;;;;;;;7.30;1.80;;;;;;;10.87;100.00;101386.28;5015622;28;20029;-74
2022/09/18 04:20:04;;;;;;;4.55;1.13;;;;;;;10.90;100.00;101383.16;5032283;28;20035;-74
2022/09/18 04:22:29;;;;;;;6.07;1.30;;;;;;;10.90;100.00;101392.13;5013739;28;20033;-74
2022/09/18 04:24:54;;;;;;;8.82;1.92;;;;;;;10.91;100.00;101382.94;5029556;28;20029;-74
2022/09/18 04:27:19;;;;;;;7.28;1.40;;;;;;;10.93;100.00;101391.69;5030901;28;20029;-74
2022/09/18 04:29:45;;;;;;;4.30;1.42;;;;;;;10.93;100.00;101385.44;5031315;28;20033;-74
2022/09/18 04:32:10;;;;;;;6.07;1.30;;;;;;;10.93;100.00;101382.72;5033111;28;20379;-74
2022/09/18 04:34:35;;;;;;;9.80;1.70;;;;;;;10.94;100.00;101387.09;5030867;28;20029;-74
2022/09/18 04:37:00;;;;;;;8.25;1.67;;;;;;;10.93;100.00;101385.44;5029311;28;20381;-74
2022/09/18 04:39:28;;;;;;;6.50;1.58;;;;;;;10.90;100.00;101392.13;5031362;28;20029;-74
2022/09/18 04:41:54;;;;;;;9.00;1.20;;;;;;;10.91;100.00;101398.38;5013059;28;20447;-74
2022/09/18 04:44:19;;;;;;;4.20;1.52;;;;;;;10.85;100.00;101391.91;5018806;28;20113;-74
2022/09/18 04:46:45;;;;;;;6.53;1.45;;;;;;;10.81;100.00;101385.28;5012893;28;20029;-74
2022/09/18 04:49:10;;;;;;;6.25;1.33;;;;;;;10.80;100.00;101386.31;5021418;28;20075;-74
2022/09/18 04:51:35;;;;;;;6.47;1.35;;;;;;;10.77;100.00;101387.56;5029956;28;20365;-74
2022/09/18 04:54:00;;;;;;;7.10;1.58;;;;;;;10.76;100.00;101394.03;5012028;28;20369;-74
2022/09/18 04:56:26;;;;;;;4.47;1.38;;;;;;;10.76;100.00;101394.03;5031323;28;20039;-74
2022/09/18 04:58:52;;;;;;;6.15;1.48;;;;;;;10.73;100.00;101397.16;5030322;28;20416;-74
2022/09/18 05:01:17;;;;;;;7.55;1.25;;;;;;;10.70;100.00;101384.03;5027668;28;20105;-74
2022/09/18 05:03:42;;;;;;;7.78;1.70;;;;;;;10.75;100.00;101395.09;5030074;28;20095;-74
2022/09/18 05:06:08;;;;;;;4.07;1.27;;;;;;;10.74;100.00;101388.00;5031018;28;20029;-74
2022/09/18 05:08:33;;;;;;;7.57;1.40;;;;;;;10.76;100.00;101382.38;5030517;28;20021;-74
2022/09/18 05:10:59;;;;;;;10.25;1.70;;;;;;;10.75;100.00;101381.56;5028162;28;20437;-74
2022/09/18 05:13:25;;;;;;;5.97;1.70;;;;;;;10.72;100.00;101365.75;5011817;28;20037;-74
2022/09/18 05:15:54;;;;;;;5.65;1.23;;;;;;;10.73;100.00;101364.66;5029559;28;20026;-74
2022/09/18 05:18:20;;;;;;;3.05;1.10;;;;;;;10.75;100.00;101375.28;5028097;28;20376;-74
2022/09/18 05:20:45;;;;;;;4.85;1.30;;;;;;;10.76;100.00;101379.66;5030314;28;20029;-74
2022/09/18 05:23:11;;;;;;;4.47;1.35;;;;;;;10.73;100.00;101386.31;5013536;28;20076;-74
2022/09/18 05:25:36;;;;;;;12.13;1.63;;;;;;;10.79;100.00;101396.34;5013520;28;20099;-74
2022/09/18 05:28:02;;;;;;;5.13;1.35;;;;;;;10.76;100.00;101383.19;5027929;28;20033;-74
2022/09/18 05:30:29;;;;;;;5.45;1.40;;;;;;;10.79;100.00;101381.94;5030691;28;20030;-74
2022/09/18 05:33:03;;;;;;;7.45;1.50;;;;;;;10.82;100.00;101398.63;5029652;28;20355;-74
2022/09/18 05:35:30;;;;;;;9.45;1.60;;;;;;;10.81;100.00;101402.34;5030484;28;20025;-74
2022/09/18 05:37:56;;;;;;;8.05;1.75;;;;;;;10.84;100.00;101413.78;5031263;28;20503;-74
2022/09/18 05:40:24;;;;;;;10.10;1.63;;;;;;;10.79;100.00;101407.16;5030791;28;20031;-74
2022/09/18 05:42:51;;;;;;;7.68;1.35;;;;;;;10.78;100.00;101402.78;5025809;28;20029;-74
2022/09/18 05:45:18;;;;;;;5.72;1.95;;;;;;;10.80;100.00;101389.84;5030501;28;20029;-74
2022/09/18 05:47:52;;;;;;;7.47;2.08;;;;;;;10.82;100.00;101384.22;5032315;28;20069;-74
2022/09/18 05:50:17;;;;;;;8.73;1.73;;;;;;;10.84;100.00;101392.13;5030642;28;20445;-74
2022/09/18 05:52:43;;;;;;;5.28;1.67;;;;;;;10.83;100.00;101388.59;5020873;28;20156;-74
2022/09/18 05:55:08;;;;;;;6.30;1.77;;;;;;;10.83;100.00;101391.31;5028332;28;20067;-74
2022/09/18 05:57:34;;;;;;;7.35;1.90;;;;;;;10.86;100.00;101393.59;5032134;28;20032;-74
2022/09/18 05:59:59;;;;;;;8.82;2.00;;;;;;;10.80;100.00;101387.16;5010133;28;20120;-74
2022/09/18 06:02:24;;;;;;;6.03;1.83;;;;;;;10.87;100.00;101383.59;5009828;28;20033;-74
2022/09/18 06:04:49;;;;;;;10.50;2.25;;;;;;;10.85;100.00;101385.69;5029605;28;20045;-74
2022/09/18 06:07:16;;;;;;;5.88;2.20;;;;;;;10.88;100.00;101385.25;5032001;28;20017;-74
2022/09/18 06:09:41;;;;;;;7.50;2.13;;;;;;;10.86;100.00;101384.66;5013100;28;20036;-72
2022/09/18 06:12:07;;;;;;;8.10;2.00;;;;;;;10.87;100.00;101381.72;5019241;28;20030;-73
2022/09/18 06:14:32;;;;;;;6.18;1.80;;;;;;;10.88;100.00;101369.00;5023665;28;20025;-74
2022/09/18 06:16:59;;;;;;;10.80;2.00;;;;;;;10.87;100.00;101375.47;5012808;28;20037;-74
2022/09/18 06:19:24;;;;;;;9.38;2.10;;;;;;;10.86;100.00;101374.63;5030552;28;20113;-74
2022/09/18 06:21:49;;;;;;;8.07;2.00;;;;;;;10.92;100.00;101389.19;5031912;28;20104;-74
2022/09/18 06:24:14;;;;;;;8.20;1.92;;;;;;;10.90;100.00;101378.59;5013394;28;20128;-74
2022/09/18 06:26:40;;;;;;;6.95;1.80;;;;;;;10.96;100.00;101379.59;5031156;28;20029;-74
2022/09/18 06:29:05;;;;;;;8.07;1.92;;;;;;;10.97;100.00;101384.78;5029475;28;20029;-74
2022/09/18 06:31:31;;;;;;;10.43;2.10;;;;;;;10.99;100.00;101380.00;5015813;28;20064;-74
2022/09/18 06:33:56;;;;;;;8.73;2.10;;;;;;;10.99;100.00;101376.44;5025540;28;20037;-74
2022/09/18 06:36:21;;;;;;;7.05;2.13;;;;;;;10.99;100.00;101365.63;5035472;28;20025;-74
2022/09/18 06:38:50;;;;;;;7.32;1.92;;;;;;;11.05;100.00;101372.06;5034938;28;20029;-74
2022/09/18 06:41:16;;;;;;;11.20;2.65;;;;;;;11.06;100.00;101369.13;5034843;28;20040;-74
2022/09/18 06:43:41;;;;;;;10.27;2.20;;;;;;;11.08;100.00;101356.22;5034047;28;20033;-74
2022/09/18 06:46:09;;;;;;;8.80;2.47;;;;;;;11.11;100.00;101373.91;5034758;28;20029;-74
2022/09/18 06:48:35;;;;;;;8.30;2.22;;;;;;;11.13;100.00;101380.78;5034958;28;20022;-74
2022/09/18 06:51:00;;;;;;;11.82;2.00;;;;;;;11.14;100.00;101368.03;5034668;28;20029;-74
2022/09/18 06:53:26;;;;;;;8.63;2.17;;;;;;;11.16;100.00;101369.50;5033623;28;20025;-74
2022/09/18 06:55:52;;;;;;;10.43;2.17;;;;;;;11.17;100.00;101373.88;5034569;28;20453;-74
2022/09/18 06:58:18;;;;;;;11.48;2.50;;;;;;;11.21;100.00;101370.75;5016732;28;20025;-74
2022/09/18 07:00:45;;;;;;;8.93;2.00;;;;;;;11.21;100.00;101376.16;5031027;28;20219;-74
2022/09/18 07:03:10;;;;;;;7.20;2.15;;;;;;;11.22;100.00;101373.22;5030440;28;20047;-74
2022/09/18 07:05:44;;;;;;;9.35;2.08;;;;;;;11.24;100.00;101371.13;5032925;28;20037;-74
2022/09/18 07:08:10;;;;;;;14.30;2.15;;;;;;;11.27;100.00;101373.41;5031196;28;20029;-74
2022/09/18 07:10:36;;;;;;;10.95;2.17;;;;;;;11.30;100.00;101370.25;5024132;28;20384;-74
2022/09/18 07:13:03;;;;;;;10.55;2.25;;;;;;;11.28;100.00;101366.13;5030288;28;20037;-73
2022/09/18 07:15:28;;;;;;;9.82;1.95;;;;;;;11.31;100.00;101363.81;5033598;28;20077;-75
2022/09/18 07:17:58;;;;;;;7.07;2.10;;;;;;;11.34;100.00;101370.66;5031576;28;20057;-74
2022/09/18 07:20:24;;;;;;;11.55;2.47;;;;;;;11.36;100.00;101360.44;5031993;28;20025;-73
2022/09/18 07:22:57;;;;;;;9.30;2.00;;;;;;;11.38;100.00;101363.75;5031567;28;20026;-73
2022/09/18 07:25:24;;;;;;;8.10;2.00;;;;;;;11.35;100.00;101353.34;5016638;28;20449;-73
2022/09/18 07:27:50;;;;;;;12.45;2.10;;;;;;;11.42;100.00;101351.44;5014033;28;20080;-73
2022/09/18 07:30:16;;;;;;;5.18;1.80;;;;;;;11.42;100.00;101348.72;5030915;28;20478;-73
2022/09/18 07:32:41;;;;;;;13.45;2.00;;;;;;;11.42;100.00;101335.19;5014875;28;20045;-73
2022/09/18 07:35:07;;;;;;;7.40;1.90;;;;;;;11.45;100.00;101347.47;5033490;28;20087;-77
2022/09/18 07:37:33;;;;;;;10.38;2.08;;;;;;;11.48;100.00;101350.56;5028759;28;20110;-72
2022/09/18 07:39:58;;;;;;;7.50;1.80;;;;;;;11.50;100.00;101339.50;5010954;28;20025;-71
2022/09/18 07:42:24;;;;;;;9.38;2.33;;;;;;;11.51;100.00;101346.59;5026374;28;20033;-71
2022/09/18 07:44:49;;;;;;;10.27;2.33;;;;;;;11.58;100.00;101358.22;5033872;28;20028;-71
2022/09/18 07:47:14;;;;;;;6.88;1.77;;;;;;;11.58;100.00;101362.78;5033573;28;20159;-71
2022/09/18 07:49:41;;;;;;;6.75;2.00;;;;;;;11.61;100.00;101359.63;5033999;28;20033;-71
2022/09/18 07:52:06;;;;;;;5.50;1.85;;;;;;;11.61;100.00;101351.50;5031864;28;20124;-71
2022/09/18 07:54:32;;;;;;;7.72;2.25;;;;;;;11.65;100.00;101352.75;5033631;28;20128;-72
2022/09/18 07:56:57;;;;;;;8.10;2.13;;;;;;;11.68;100.00;101338.75;5032044;28;20076;-72
2022/09/18 07:59:22;;;;;;;9.13;1.90;;;;;;;11.75;100.00;101346.84;5026800;28;20030;-74
2022/09/18 08:01:48;;;;;;;11.48;2.30;;;;;;;11.76;100.00;101340.34;5031349;28;20256;-74
2022/09/18 08:04:13;;;;;;;8.93;2.17;;;;;;;11.86;100.00;101344.22;5033136;28;20053;-77
2022/09/18 08:06:38;;;;;;;9.77;2.20;;;;;;;11.93;100.00;101344.22;5033734;28;20520;-73
2022/09/18 08:09:04;;;;;;;4.32;1.90;;;;;;;11.96;100.00;101335.63;5023484;28;20026;-74
2022/09/18 08:11:29;;;;;;;9.82;2.17;;;;;;;12.11;100.00;101339.88;5030080;28;20029;-74
2022/09/18 08:13:55;;;;;;;4.20;1.70;;;;;;;12.07;100.00;101335.97;5031309;28;20036;-73
2022/09/18 08:16:20;;;;;;;6.07;1.85;;;;;;;12.10;100.00;101325.47;5033565;28;20025;-73
2022/09/18 08:18:46;;;;;;;6.80;1.92;;;;;;;12.13;100.00;101341.31;5032541;28;20029;-73
2022/09/18 08:21:12;;;;;;;5.53;1.75;;;;;;;12.16;100.00;101353.59;5033240;28;20071;-73
2022/09/18 08:23:37;;;;;;;6.57;1.77;;;;;;;12.12;100.00;101350.50;5033497;28;20033;-73
2022/09/18 08:26:03;;;;;;;7.57;1.88;;;;;;;12.17;100.00;101350.66;5033034;28;20025;-73
2022/09/18 08:28:29;;;;;;;6.10;1.73;;;;;;;12.15;100.00;101355.50;5026354;28;20024;-74
2022/09/18 08:30:56;;;;;;;6.43;1.55;;;;;;;12.13;100.00;101357.59;5032032;28;20117;-73
2022/09/18 08:33:21;;;;;;;9.32;2.08;;;;;;;12.09;100.00;101353.66;5015225;28;20428;-74
2022/09/18 08:35:46;;;;;;;5.13;1.40;;;;;;;12.10;100.00;101362.63;5015497;28;20029;-74
2022/09/18 08:38:12;;;;;;;7.22;2.08;;;;;;;12.05;100.00;101363.31;5032087;28;20084;-74
2022/09/18 08:41:01;;;;;;;7.22;1.83;;;;;;;12.02;100.00;101366.47;5033456;28;20030;-74
2022/09/18 08:43:27;;;;;;;8.02;1.52;;;;;;;12.02;100.00;101367.28;5022327;28;20032;-77
2022/09/18 08:46:04;;;;;;;4.13;1.50;;;;;;;11.96;100.00;101362.75;5030254;28;20029;-77
2022/09/18 08:48:38;;;;;;;5.72;1.50;;;;;;;11.96;100.00;101359.22;5030905;28;20285;-74
2022/09/18 08:51:21;;;;;;;6.03;1.42;;;;;;;11.97;100.00;101344.59;5023996;28;20100;-74
2022/09/18 08:53:53;;;;;;;8.30;2.25;;;;;;;11.95;100.00;101361.09;5027635;28;20030;-74
2022/09/18 08:56:22;;;;;;;6.10;1.63;;;;;;;11.99;100.00;101362.31;5030541;28;20862;-74
2022/09/18 08:58:55;;;;;;;5.38;1.80;;;;;;;12.00;100.00;101357.69;5030994;28;20456;-73
2022/09/18 09:01:24;;;;;;;7.13;1.70;;;;;;;12.00;100.00;101361.25;5028496;28;20029;-73
2022/09/18 09:04:27;;;;;;;3.60;1.35;;;;;;;12.01;100.00;101364.78;5032448;28;20095;-74
2022/09/18 09:07:11;;;;;;;6.35;1.55;;;;;;;12.01;100.00;101362.09;5027719;28;20044;-75
2022/09/18 09:10:14;;;;;;;6.82;2.70;;;;;;;12.04;100.00;101364.34;5024947;28;20083;-79
2022/09/18 09:13:04;;;;;;;4.70;1.95;;;;;;;12.04;100.00;101370.59;5024908;28;20017;-79
2022/09/18 09:16:03;;;;;;;4.50;1.80;;;;;;;12.26;100.00;101367.50;5019245;28;20025;-76
2022/09/18 09:18:35;;;;;;;3.63;1.88;;;;;;;12.09;100.00;101363.69;5000201;28;20036;-72
2022/09/18 09:21:17;;;;;;;7.65;1.90;;;;;;;12.08;100.00;101362.00;5031978;28;20026;-75
2022/09/18 09:23:42;;;;;;;;;;;;;;;12.17;100.00;101358.81;5031930;28;20495;-74
2022/09/18 09:26:16;;;;;;;7.53;1.63;;;;;;;12.09;100.00;101369.94;5024792;28;19948;-74
2022/09/18 09:28:54;;;;;;;5.32;2.20;;;;;;;12.11;100.00;101378.69;5013986;28;20022;-74
2022/09/18 09:31:24;;;;;;;8.85;2.38;;;;;;;12.05;100.00;101366.03;5031427;28;20013;-73
2022/09/18 09:33:49;;;;;;;4.85;2.75;;;;;;;12.06;100.00;101367.66;5031809;28;20021;-74
2022/09/18 09:36:20;;;;;;;7.33;3.10;;;;;;;12.06;100.00;101362.22;5031916;28;20441;-74
2022/09/18 09:39:12;;;;;;;7.30;2.70;;;;;;;12.08;100.00;101370.16;5032036;28;20272;-74
2022/09/18 09:41:43;;;;;;;7.95;2.72;;;;;;;12.04;100.00;101364.34;5013113;28;20136;-75
2022/09/18 09:44:40;;;;;;;7.45;2.75;;;;;;;12.08;100.00;101371.00;5012571;28;20029;-74
2022/09/18 09:47:27;;;;;;;8.25;2.50;;;;;;;12.07;100.00;101374.75;5003761;28;20037;-74
2022/09/18 09:50:07;;;;;;;7.72;2.65;;;;;;;12.12;100.00;101376.81;5031895;28;20117;-74
2022/09/18 09:52:35;;;;;;;7.07;2.47;;;;;;;12.15;100.00;101365.50;5030833;28;20022;-77
2022/09/18 09:55:18;;;;;;;6.90;2.53;;;;;;;12.19;100.00;101361.28;5031017;28;20033;-76
2022/09/18 09:58:14;;;;;;;6.32;2.38;;;;;;;12.24;100.00;101353.31;5032577;28;20175;-77
2022/09/18 10:00:49;;;;;;;14.80;2.92;;;;;;;12.22;100.00;101342.69;5008296;28;20486;-79
2022/09/18 10:03:26;;;;;;;8.00;2.25;;;;;;;12.28;100.00;101334.72;5017782;28;20021;-76
2022/09/18 10:06:04;;;;;;;6.88;2.50;;;;;;;12.28;100.00;101326.56;5036040;28;20041;-75
2022/09/18 10:08:58;;;;;;;7.25;2.85;;;;;;;12.29;100.00;101314.63;5035088;28;20453;-75
2022/09/18 10:11:23;;;;;;;8.30;2.80;;;;;;;12.33;100.00;101318.56;5016797;28;20025;-73
2022/09/18 10:13:54;;;;;;;7.63;2.47;;;;;;;12.39;100.00;101323.94;5035863;28;20032;-74
2022/09/18 10:16:32;;;;;;;7.68;2.50;;;;;;;12.41;100.00;101327.25;5035529;28;20437;-74
2022/09/18 10:18:59;;;;;;;7.70;2.80;;;;;;;12.46;100.00;101333.91;5035011;28;20065;-75
2022/09/18 10:21:27;;;;;;;7.82;2.28;;;;;;;12.49;100.00;101333.44;5033320;28;20504;-76
2022/09/18 10:24:16;;;;;;;6.45;2.05;;;;;;;12.51;100.00;101325.91;5034878;28;20033;-76
2022/09/18 10:26:53;;;;;;;6.35;1.75;;;;;;;12.58;100.00;101338.34;5015803;28;20022;-77
2022/09/18 10:29:18;;;;;;;7.93;2.08;;;;;;;12.61;100.00;101330.81;5018238;28;20037;-75
2022/09/18 10:31:50;;;;;;;5.57;1.50;;;;;;;12.62;100.00;101337.88;5017855;28;20029;-74
2022/09/18 10:34:41;;;;;;;6.95;1.50;;;;;;;12.71;100.00;101337.38;5035318;28;20064;-74
2022/09/18 10:37:15;;;;;;;6.05;1.90;;;;;;;12.72;100.00;101343.63;5030141;28;20013;-75
2022/09/18 10:39:52;;;;;;;3.88;1.48;;;;;;;12.73;100.00;101340.66;5027038;28;20029;-73
2022/09/18 10:42:21;;;;;;;2.95;1.30;;;;;;;12.73;100.00;101340.66;5032497;28;20464;-74
2022/09/18 10:44:57;;;;;;;6.85;1.45;;;;;;;12.77;100.00;101335.59;5035206;28;20033;-73
2022/09/18 10:47:25;;;;;;;4.03;1.20;;;;;;;12.76;100.00;101317.66;5034959;28;20026;-73
2022/09/18 10:49:56;;;;;;;4.38;1.20;;;;;;;12.82;100.00;101327.63;5034902;28;20369;-73
2022/09/18 10:52:39;;;;;;;5.22;1.10;;;;;;;12.82;100.00;101310.47;5017940;28;20523;-73
2022/09/18 10:55:04;;;;;;;4.47;1.30;;;;;;;12.83;100.00;101312.13;5026225;28;20033;-73
2022/09/18 10:57:39;;;;;;;3.05;1.30;;;;;;;12.83;100.00;101309.44;5013776;28;20030;-73
2022/09/18 11:00:25;;;;;;;7.22;1.92;;;;;;;12.93;100.00;101307.81;5016699;28;20052;-71
2022/09/18 11:03:02;;;;;;;9.57;2.20;;;;;;;12.98;100.00;101303.59;5022570;28;20048;-73
2022/09/18 11:05:45;;;;;;;5.88;2.00;;;;;;;12.91;100.00;101304.50;5033608;28;20061;-70
2022/09/18 11:08:17;;;;;;;6.35;2.20;;;;;;;12.90;100.00;101305.56;5034497;28;20025;-71
2022/09/18 11:10:48;;;;;;;5.70;2.10;;;;;;;12.87;100.00;101306.03;5034129;28;20534;-70
2022/09/18 11:13:22;;;;;;;5.40;2.03;;;;;;;12.88;100.00;101315.00;5034590;28;20025;-71
2022/09/18 11:15:55;;;;;;;6.57;2.28;;;;;;;12.84;100.00;101335.53;5032464;28;20032;-71
2022/09/18 11:18:23;;;;;;;6.82;2.17;;;;;;;12.77;100.00;101336.44;5034484;28;20033;-71
2022/09/18 11:20:50;;;;;;;6.60;2.25;;;;;;;12.73;100.00;101339.84;5016888;28;20025;-70
2022/09/18 11:23:29;;;;;;;5.03;2.03;;;;;;;12.72;100.00;101341.72;5034081;28;20456;-71
2022/09/18 11:26:18;;;;;;;5.60;1.77;;;;;;;12.64;100.00;101335.78;5002403;28;20466;-70
2022/09/18 11:28:57;;;;;;;7.82;2.53;;;;;;;12.59;100.00;101337.28;5022124;28;20068;-71
2022/09/18 11:31:23;;;;;;;7.78;1.90;;;;;;;12.50;100.00;101352.22;5014549;28;20036;-69